createdAt,value
2023-05-25T00:00:57.546Z,101177.88
2023-05-25T00:03:28.775Z,101167.09
2023-05-25T00:05:57.956Z,101177.63
2023-05-25T00:08:25.680Z,101171.13
2023-05-25T00:10:54.796Z,101170.06
2023-05-25T00:13:22.496Z,101179.22
2023-05-25T00:15:50.488Z,101171.44
2023-05-25T00:18:18.437Z,101171.25
2023-05-25T00:20:47.405Z,101168.56
2023-05-25T00:23:15.955Z,101165.50
2023-05-25T00:25:43.956Z,101170.34
2023-05-25T00:28:13.463Z,101164.53
2023-05-25T00:30:41.209Z,101167.91
2023-05-25T00:33:10.480Z,101160.00
2023-05-25T00:35:38.395Z,101164.31
2023-05-25T00:38:06.072Z,101165.75
2023-05-25T00:40:34.606Z,101164.16
2023-05-25T00:43:02.368Z,101161.97
2023-05-25T00:45:31.355Z,101166.81
2023-05-25T00:48:00.451Z,101164.75
2023-05-25T00:50:38.825Z,101167.31
2023-05-25T00:53:07.286Z,101173.59
2023-05-25T00:55:38.591Z,101174.09
2023-05-25T00:58:07.030Z,101174.09
2023-05-25T01:00:36.903Z,101170.47
2023-05-25T01:03:11.987Z,101171.00
2023-05-25T01:05:44.677Z,101177.38
2023-05-25T01:08:15.167Z,101167.66
2023-05-25T01:10:44.022Z,101172.38
2023-05-25T01:13:12.300Z,101174.47
2023-05-25T01:15:42.428Z,101171.69
2023-05-25T01:18:10.249Z,101179.63
2023-05-25T01:20:38.045Z,101179.63
2023-05-25T01:23:13.968Z,101188.72
2023-05-25T01:25:48.523Z,101186.69
2023-05-25T01:28:22.786Z,101187.50
2023-05-25T01:30:51.601Z,101183.47
2023-05-25T01:33:19.987Z,101180.56
2023-05-25T01:35:48.585Z,101185.78
2023-05-25T01:38:18.757Z,101179.50
2023-05-25T01:40:46.442Z,101181.78
2023-05-25T01:43:14.228Z,101180.56
2023-05-25T01:45:42.127Z,101186.72
2023-05-25T01:48:17.009Z,101186.28
2023-05-25T01:50:52.172Z,101195.44
2023-05-25T01:53:24.735Z,101205.66
2023-05-25T01:55:59.692Z,101203.72
2023-05-25T01:58:29.101Z,101205.50
2023-05-25T02:00:57.714Z,101207.28
2023-05-25T02:03:25.860Z,101194.97
2023-05-25T02:05:53.931Z,101187.78
2023-05-25T02:08:22.950Z,101200.53
2023-05-25T02:10:50.973Z,101185.06
2023-05-25T02:13:18.742Z,101183.94
2023-05-25T02:15:46.689Z,101192.94
2023-05-25T02:18:17.705Z,101190.53
2023-05-25T02:20:45.848Z,101193.50
2023-05-25T02:23:13.533Z,101184.84
2023-05-25T02:25:43.605Z,101184.75
2023-05-25T02:28:11.547Z,101184.69
2023-05-25T02:30:39.861Z,101184.59
2023-05-25T02:33:07.518Z,101180.81
2023-05-25T02:35:35.295Z,101179.50
2023-05-25T02:38:02.981Z,101184.84
2023-05-25T02:40:30.601Z,101182.03
2023-05-25T02:42:59.658Z,101173.69
2023-05-25T02:45:27.337Z,101176.31
2023-05-25T02:47:55.071Z,101176.59
2023-05-25T02:50:23.082Z,101172.22
2023-05-25T02:52:50.878Z,101174.25
2023-05-25T02:55:18.916Z,101189.19
2023-05-25T02:57:46.728Z,101189.22
2023-05-25T03:00:17.228Z,101192.47
2023-05-25T03:02:46.933Z,101188.97
2023-05-25T03:05:17.742Z,101187.84
2023-05-25T03:07:45.848Z,101190.97
2023-05-25T03:10:13.612Z,101190.78
2023-05-25T03:12:41.221Z,101188.03
2023-05-25T03:15:13.090Z,101193.25
2023-05-25T03:17:42.193Z,101188.06
2023-05-25T03:20:11.274Z,101187.13
2023-05-25T03:22:38.960Z,101195.41
2023-05-25T03:25:07.737Z,101191.88
2023-05-25T03:27:35.557Z,101194.69
2023-05-25T03:30:03.463Z,101194.16
2023-05-25T03:32:32.311Z,101192.00
2023-05-25T03:35:01.352Z,101187.47
2023-05-25T03:37:28.941Z,101192.19
2023-05-25T03:39:56.630Z,101193.88
2023-05-25T03:42:24.265Z,101194.06
2023-05-25T03:44:51.892Z,101197.03
2023-05-25T03:47:19.617Z,101194.56
2023-05-25T03:49:47.281Z,101191.63
2023-05-25T03:52:16.323Z,101192.72
2023-05-25T03:54:44.021Z,101200.72
2023-05-25T03:57:11.719Z,101196.91
2023-05-25T03:59:39.393Z,101209.31
2023-05-25T04:02:07.103Z,101206.00
2023-05-25T04:04:35.059Z,101204.53
2023-05-25T04:07:02.783Z,101211.53
2023-05-25T04:09:31.754Z,101220.44
2023-05-25T04:11:59.408Z,101227.97
2023-05-25T04:14:27.081Z,101234.69
2023-05-25T04:16:55.246Z,101243.97
2023-05-25T04:19:22.855Z,101237.03
2023-05-25T04:21:50.567Z,101246.94
2023-05-25T04:24:18.605Z,101249.53
2023-05-25T04:26:47.585Z,101246.28
2023-05-25T04:29:15.230Z,101253.78
2023-05-25T04:31:45.587Z,101246.13
2023-05-25T04:34:14.503Z,101257.22
2023-05-25T04:36:43.175Z,101256.94
2023-05-25T04:39:10.931Z,101244.88
2023-05-25T04:41:39.251Z,101254.50
2023-05-25T04:44:10.344Z,101258.94
2023-05-25T04:46:39.114Z,101252.75
2023-05-25T04:49:08.231Z,101259.22
2023-05-25T04:51:36.095Z,101269.53
2023-05-25T04:54:03.852Z,101263.66
2023-05-25T04:56:31.488Z,101268.00
2023-05-25T04:58:59.407Z,101261.38
2023-05-25T05:01:29.265Z,101261.75
2023-05-25T05:03:57.313Z,101266.84
2023-05-25T05:06:25.818Z,101268.84
2023-05-25T05:08:53.512Z,101267.00
2023-05-25T05:11:23.497Z,101263.31
2023-05-25T05:13:51.252Z,101261.88
2023-05-25T05:16:20.857Z,101263.97
2023-05-25T05:18:50.050Z,101269.38
2023-05-25T05:21:17.795Z,101270.06
2023-05-25T05:23:46.494Z,101267.09
2023-05-25T05:26:15.215Z,101271.94
2023-05-25T05:28:43.086Z,101273.44
2023-05-25T05:31:12.190Z,101275.09
2023-05-25T05:33:40.206Z,101280.28
2023-05-25T05:36:09.677Z,101283.78
2023-05-25T05:38:39.327Z,101283.63
2023-05-25T05:41:13.329Z,101290.16
2023-05-25T05:43:42.278Z,101285.75
2023-05-25T05:46:10.586Z,101288.50
2023-05-25T05:48:38.549Z,101284.03
2023-05-25T05:51:07.014Z,101293.09
2023-05-25T05:53:38.168Z,101292.28
2023-05-25T05:56:07.147Z,101289.97
2023-05-25T05:58:34.832Z,101288.53
2023-05-25T06:01:03.385Z,101288.41
2023-05-25T06:03:31.174Z,101294.13
2023-05-25T06:05:58.940Z,101304.81
2023-05-25T06:08:27.425Z,101296.84
2023-05-25T06:10:56.991Z,101299.69
2023-05-25T06:13:24.647Z,101294.34
2023-05-25T06:15:52.419Z,101291.69
2023-05-25T06:18:20.166Z,101301.38
2023-05-25T06:20:47.945Z,101288.34
2023-05-25T06:23:17.741Z,101305.63
2023-05-25T06:25:45.861Z,101299.94
2023-05-25T06:28:17.525Z,101304.78
2023-05-25T06:30:45.156Z,101312.81
2023-05-25T06:33:12.793Z,101307.16
2023-05-25T06:35:40.471Z,101305.50
2023-05-25T06:38:08.183Z,101302.16
2023-05-25T06:40:35.807Z,101311.38
2023-05-25T06:43:03.605Z,101306.22
2023-05-25T06:45:32.696Z,101302.88
2023-05-25T06:48:00.593Z,101297.03
2023-05-25T06:50:28.378Z,101303.75
2023-05-25T06:52:56.171Z,101304.25
2023-05-25T06:55:23.813Z,101305.25
2023-05-25T06:57:51.581Z,101303.25
2023-05-25T07:00:21.481Z,101305.75
2023-05-25T07:02:50.562Z,101304.44
2023-05-25T07:05:18.581Z,101305.94
2023-05-25T07:07:46.484Z,101312.31
2023-05-25T07:10:14.131Z,101309.66
2023-05-25T07:12:42.151Z,101303.63
2023-05-25T07:15:11.569Z,101312.66
2023-05-25T07:17:39.277Z,101309.66
2023-05-25T07:20:10.663Z,101306.63
2023-05-25T07:22:38.478Z,101306.63
2023-05-25T07:25:07.161Z,101309.59
2023-05-25T07:27:35.952Z,101316.31
2023-05-25T07:30:03.752Z,101321.66
2023-05-25T07:32:31.463Z,101313.09
2023-05-25T07:34:59.153Z,101313.28
2023-05-25T07:37:28.162Z,101304.22
2023-05-25T07:39:55.840Z,101307.72
2023-05-25T07:42:23.513Z,101309.53
2023-05-25T07:44:51.184Z,101301.78
2023-05-25T07:47:18.862Z,101306.81
2023-05-25T07:49:46.639Z,101311.31
2023-05-25T07:52:14.292Z,101311.94
2023-05-25T07:54:43.330Z,101304.34
2023-05-25T07:57:11.120Z,101312.03
2023-05-25T07:59:38.853Z,101315.66
2023-05-25T08:02:06.759Z,101314.09
2023-05-25T08:04:35.657Z,101319.09
2023-05-25T08:07:03.750Z,101314.88
2023-05-25T08:09:31.423Z,101315.09
2023-05-25T08:12:24.068Z,101312.00
2023-05-25T08:14:49.436Z,101319.88
2023-05-25T08:17:17.205Z,101316.09
2023-05-25T08:19:44.974Z,101316.69
2023-05-25T08:22:12.750Z,101310.88
2023-05-25T08:24:40.445Z,101319.81
2023-05-25T08:27:09.414Z,101318.53
2023-05-25T08:29:37.162Z,101325.28
2023-05-25T08:32:05.067Z,101313.34
2023-05-25T08:34:32.738Z,101309.53
2023-05-25T08:37:00.491Z,101313.47
2023-05-25T08:39:28.151Z,101315.69
2023-05-25T08:41:55.836Z,101324.13
2023-05-25T08:44:24.989Z,101317.78
2023-05-25T08:46:53.804Z,101317.06
2023-05-25T08:49:23.988Z,101312.41
2023-05-25T08:51:53.036Z,101320.16
2023-05-25T08:54:23.856Z,101326.47
2023-05-25T08:56:53.497Z,101318.66
2023-05-25T08:59:38.822Z,101323.25
2023-05-25T09:02:22.218Z,101328.47
2023-05-25T09:04:49.989Z,101314.47
2023-05-25T09:07:17.991Z,101329.09
2023-05-25T09:09:46.575Z,101321.25
2023-05-25T09:12:15.120Z,101317.59
2023-05-25T09:14:48.196Z,101320.16
2023-05-25T09:17:17.013Z,101315.84
2023-05-25T09:19:45.006Z,101324.44
2023-05-25T09:22:16.553Z,101327.00
2023-05-25T09:24:45.471Z,101318.75
2023-05-25T09:27:14.566Z,101321.97
2023-05-25T09:29:42.233Z,101323.47
2023-05-25T09:32:11.305Z,101321.00
2023-05-25T09:34:39.118Z,101321.84
2023-05-25T09:37:12.536Z,101323.53
2023-05-25T09:39:41.300Z,101320.69
2023-05-25T09:42:09.172Z,101324.88
2023-05-25T09:44:37.017Z,101320.34
2023-05-25T09:47:05.843Z,101321.00
2023-05-25T09:49:34.920Z,101328.31
2023-05-25T09:52:03.029Z,101321.72
2023-05-25T09:54:30.914Z,101325.50
2023-05-25T09:56:58.572Z,101317.19
2023-05-25T09:59:26.657Z,101321.78
2023-05-25T10:01:54.546Z,101316.22
2023-05-25T10:04:22.425Z,101325.94
2023-05-25T10:06:52.716Z,101318.09
2023-05-25T10:09:21.615Z,101308.75
2023-05-25T10:11:52.460Z,101329.78
2023-05-25T10:17:15.564Z,101333.97
2023-05-25T10:19:47.643Z,101333.97
2023-05-25T10:22:21.945Z,101341.06
2023-05-25T10:24:56.750Z,101324.00
2023-05-25T10:27:30.457Z,101333.16
2023-05-25T10:30:00.893Z,101333.38
2023-05-25T10:32:30.258Z,101334.81
2023-05-25T10:34:58.441Z,101329.63
2023-05-25T10:37:29.370Z,101322.72
2023-05-25T10:39:58.261Z,101320.84
2023-05-25T10:42:27.000Z,101325.00
2023-05-25T10:44:56.437Z,101320.19
2023-05-25T10:47:25.161Z,101315.41
2023-05-25T10:49:55.333Z,101312.06
2023-05-25T10:52:23.360Z,101309.31
2023-05-25T10:54:56.905Z,101299.66
2023-05-25T10:57:26.040Z,101296.94
2023-05-25T10:59:59.799Z,101301.06
2023-05-25T11:02:29.157Z,101304.94
2023-05-25T11:05:31.747Z,101303.88
2023-05-25T11:08:00.848Z,101299.66
2023-05-25T11:10:53.969Z,101301.06
2023-05-25T11:13:41.447Z,101301.47
2023-05-25T11:16:17.927Z,101298.91
2023-05-25T11:18:47.359Z,101298.91
2023-05-25T11:21:22.075Z,101300.94
2023-05-25T11:24:00.098Z,101292.09
2023-05-25T11:26:30.825Z,101292.69
2023-05-25T11:28:59.824Z,101293.75
2023-05-25T11:31:38.350Z,101295.78
2023-05-25T11:34:11.876Z,101292.34
2023-05-25T11:36:39.878Z,101294.00
2023-05-25T11:39:20.565Z,101292.72
2023-05-25T11:41:55.987Z,101286.81
2023-05-25T11:44:29.053Z,101274.34
2023-05-25T11:46:58.130Z,101286.47
2023-05-25T11:49:28.791Z,101279.91
2023-05-25T11:51:58.188Z,101269.56
2023-05-25T11:54:27.378Z,101275.81
2023-05-25T11:56:59.422Z,101276.66
2023-05-25T11:59:29.708Z,101281.25
2023-05-25T12:02:00.631Z,101271.88
2023-05-25T12:04:29.016Z,101276.38
2023-05-25T12:07:02.837Z,101273.59
2023-05-25T12:09:30.640Z,101269.09
2023-05-25T12:12:01.024Z,101281.06
2023-05-25T12:14:28.761Z,101273.59
2023-05-25T12:16:58.159Z,101277.41
2023-05-25T12:19:26.074Z,101267.44
2023-05-25T12:21:54.006Z,101261.47
2023-05-25T12:24:21.853Z,101260.84
2023-05-25T12:26:50.069Z,101256.91
2023-05-25T12:29:19.155Z,101254.63
2023-05-25T12:31:46.879Z,101253.19
2023-05-25T12:34:17.130Z,101256.50
2023-05-25T12:36:47.897Z,101248.63
2023-05-25T12:39:17.147Z,101238.66
2023-05-25T12:41:51.253Z,101236.59
2023-05-25T12:44:27.505Z,101248.25
2023-05-25T12:46:56.610Z,101231.81
2023-05-25T12:49:34.826Z,101238.25
2023-05-25T12:52:04.170Z,101234.72
2023-05-25T12:54:35.806Z,101229.91
2023-05-25T12:57:03.755Z,101229.06
2023-05-25T12:59:32.973Z,101225.06
2023-05-25T13:02:00.907Z,101221.28
2023-05-25T13:04:28.660Z,101220.66
2023-05-25T13:06:56.746Z,101215.25
2023-05-25T13:09:26.727Z,101225.63
2023-05-25T13:11:55.613Z,101222.66
2023-05-25T13:14:23.965Z,101215.97
2023-05-25T13:16:54.281Z,101213.03
2023-05-25T13:19:23.021Z,101214.66
2023-05-25T13:21:51.824Z,101207.38
2023-05-25T13:24:20.546Z,101210.84
2023-05-25T13:26:50.990Z,101204.28
2023-05-25T13:29:19.079Z,101201.38
2023-05-25T13:31:48.092Z,101198.38
2023-05-25T13:34:17.596Z,101199.13
2023-05-25T13:36:45.303Z,101197.38
2023-05-25T13:39:14.551Z,101200.22
2023-05-25T13:41:42.269Z,101213.94
2023-05-25T13:44:11.159Z,101212.34
2023-05-25T13:46:39.062Z,101213.59
2023-05-25T13:49:06.902Z,101211.50
2023-05-25T13:51:38.184Z,101212.06
2023-05-25T13:54:06.148Z,101213.50
2023-05-25T13:56:34.047Z,101212.22
2023-05-25T13:59:01.689Z,101210.41
2023-05-25T14:01:29.384Z,101200.84
2023-05-25T14:03:59.761Z,101203.97
2023-05-25T14:06:28.816Z,101197.78
2023-05-25T14:08:58.130Z,101196.81
2023-05-25T14:11:28.355Z,101189.53
2023-05-25T14:13:56.534Z,101188.34
2023-05-25T14:16:24.269Z,101194.19
2023-05-25T14:18:52.067Z,101180.91
2023-05-25T14:21:19.775Z,101185.53
2023-05-25T14:23:47.565Z,101187.47
2023-05-25T14:26:17.827Z,101192.25
2023-05-25T14:28:45.582Z,101187.91
2023-05-25T14:31:13.343Z,101187.75
2023-05-25T14:33:42.965Z,101184.44
2023-05-25T14:36:11.139Z,101179.44
2023-05-25T14:38:38.994Z,101178.81
2023-05-25T14:41:06.754Z,101175.50
2023-05-25T14:43:35.773Z,101178.19
2023-05-25T14:46:03.450Z,101170.28
2023-05-25T14:48:31.284Z,101176.34
2023-05-25T14:51:00.176Z,101176.16
2023-05-25T14:53:27.866Z,101175.13
2023-05-25T14:55:55.595Z,101179.31
2023-05-25T14:58:23.304Z,101182.00
2023-05-25T15:00:52.481Z,101174.50
2023-05-25T15:03:20.298Z,101181.81
2023-05-25T15:05:48.022Z,101184.50
2023-05-25T15:08:15.909Z,101189.94
2023-05-25T15:10:43.860Z,101182.84
2023-05-25T15:13:13.365Z,101184.13
2023-05-25T15:15:41.706Z,101187.88
2023-05-25T15:18:10.918Z,101174.75
2023-05-25T15:20:38.691Z,101176.44
2023-05-25T15:23:06.653Z,101169.97
2023-05-25T15:25:35.826Z,101172.69
2023-05-25T15:28:03.946Z,101178.94
2023-05-25T15:30:33.052Z,101174.16
2023-05-25T15:33:00.893Z,101171.44
2023-05-25T15:35:32.321Z,101170.41
2023-05-25T15:38:00.865Z,101166.84
2023-05-25T15:40:28.617Z,101163.97
2023-05-25T15:42:56.318Z,101170.00
2023-05-25T15:45:24.983Z,101160.03
2023-05-25T15:47:52.674Z,101161.69
2023-05-25T15:50:20.382Z,101160.84
2023-05-25T15:52:49.385Z,101163.34
2023-05-25T15:55:17.084Z,101161.31
2023-05-25T15:57:44.764Z,101164.22
2023-05-25T16:00:13.906Z,101164.59
2023-05-25T16:02:41.619Z,101160.03
2023-05-25T16:05:09.849Z,101167.13
2023-05-25T16:07:37.546Z,101166.72
2023-05-25T16:10:07.672Z,101163.59
2023-05-25T16:12:35.332Z,101163.81
2023-05-25T16:15:03.159Z,101167.75
2023-05-25T16:17:30.855Z,101164.44
2023-05-25T16:19:58.574Z,101167.56
2023-05-25T16:22:26.260Z,101157.16
2023-05-25T16:24:53.881Z,101158.44
2023-05-25T16:27:22.849Z,101165.06
2023-05-25T16:29:50.765Z,101160.94
2023-05-25T16:32:18.649Z,101160.94
2023-05-25T16:34:46.325Z,101165.91
2023-05-25T16:37:14.072Z,101166.31
2023-05-25T16:39:41.727Z,101167.16
2023-05-25T16:42:09.472Z,101161.31
2023-05-25T16:44:38.545Z,101154.22
2023-05-25T16:47:06.785Z,101158.19
2023-05-25T16:49:34.421Z,101153.81
2023-05-25T16:52:02.603Z,101152.78
2023-05-25T16:54:30.877Z,101158.81
2023-05-25T16:56:58.529Z,101149.66
2023-05-25T16:59:26.196Z,101151.31
2023-05-25T17:01:55.763Z,101158.81
2023-05-25T17:04:23.577Z,101161.72
2023-05-25T17:06:51.324Z,101159.84
2023-05-25T17:09:19.006Z,101149.03
2023-05-25T17:11:46.629Z,101151.31
2023-05-25T17:14:14.332Z,101155.47
2023-05-25T17:16:42.175Z,101153.81
2023-05-25T17:19:11.417Z,101149.22
2023-05-25T17:21:39.732Z,101156.50
2023-05-25T17:24:07.961Z,101151.09
2023-05-25T17:26:35.691Z,101156.34
2023-05-25T17:29:04.815Z,101148.44
2023-05-25T17:31:32.702Z,101156.75
2023-05-25T17:34:00.398Z,101153.88
2023-05-25T17:36:29.440Z,101154.91
2023-05-25T17:38:57.050Z,101156.81
2023-05-25T17:41:24.676Z,101160.91
2023-05-25T17:43:52.358Z,101160.28
2023-05-25T17:46:20.030Z,101167.38
2023-05-25T17:48:47.671Z,101165.09
2023-05-25T17:51:15.435Z,101159.28
2023-05-25T17:53:44.441Z,101170.31
2023-05-25T17:56:12.103Z,101163.47
2023-05-25T17:58:39.747Z,101157.63
2023-05-25T18:01:07.534Z,101167.22
2023-05-25T18:03:35.612Z,101166.78
2023-05-25T18:06:03.455Z,101171.34
2023-05-25T18:08:31.157Z,101169.09
2023-05-25T18:11:00.322Z,101169.09
2023-05-25T18:13:28.103Z,101162.84
2023-05-25T18:15:55.834Z,101167.63
2023-05-25T18:18:24.801Z,101171.97
2023-05-25T18:20:52.572Z,101172.19
2023-05-25T18:23:22.181Z,101169.28
2023-05-25T18:25:49.946Z,101176.34
2023-05-25T18:28:19.173Z,101172.59
2023-05-25T18:30:46.908Z,101179.66
2023-05-25T18:33:14.820Z,101179.22
2023-05-25T18:35:42.768Z,101175.25
2023-05-25T18:38:10.677Z,101183.75
2023-05-25T18:40:38.448Z,101183.34
2023-05-25T18:43:07.792Z,101183.75
2023-05-25T18:45:36.920Z,101188.31
2023-05-25T18:48:07.404Z,101180.00
2023-05-25T18:50:35.546Z,101180.00
2023-05-25T18:53:03.249Z,101178.75
2023-05-25T18:55:31.005Z,101182.66
2023-05-25T18:57:58.778Z,101190.38
2023-05-25T19:00:26.745Z,101184.72
2023-05-25T19:02:57.166Z,101187.41
2023-05-25T19:05:25.317Z,101196.97
2023-05-25T19:07:58.874Z,101195.50
2023-05-25T19:10:28.076Z,101192.78
2023-05-25T19:12:55.927Z,101187.78
2023-05-25T19:15:23.924Z,101199.19
2023-05-25T19:17:52.131Z,101207.69
2023-05-25T19:20:21.559Z,101212.66
2023-05-25T19:22:49.369Z,101214.28
2023-05-25T19:25:17.221Z,101226.53
2023-05-25T19:27:44.856Z,101224.22
2023-05-25T19:30:13.162Z,101227.50
2023-05-25T19:32:40.950Z,101234.16
2023-05-25T19:35:09.094Z,101232.44
2023-05-25T19:37:40.776Z,101233.84
2023-05-25T19:40:10.917Z,101237.59
2023-05-25T19:42:38.701Z,101240.50
2023-05-25T19:45:07.140Z,101246.47
2023-05-25T19:47:34.980Z,101242.91
2023-05-25T19:50:03.225Z,101253.03
2023-05-25T19:52:31.038Z,101252.81
2023-05-25T19:55:00.252Z,101252.19
2023-05-25T19:57:28.136Z,101258.34
2023-05-25T19:59:55.930Z,101256.03
2023-05-25T20:02:23.820Z,101256.44
2023-05-25T20:04:51.691Z,101260.56
2023-05-25T20:07:19.465Z,101257.22
2023-05-25T20:09:47.244Z,101267.34
2023-05-25T20:12:16.729Z,101267.34
2023-05-25T20:14:44.822Z,101271.47
2023-05-25T20:17:12.528Z,101271.66
2023-05-25T20:19:40.295Z,101275.75
2023-05-25T20:22:08.415Z,101272.66
2023-05-25T20:24:36.321Z,101273.41
2023-05-25T20:27:04.955Z,101273.22
2023-05-25T20:29:34.540Z,101281.88
2023-05-25T20:32:02.348Z,101279.56
2023-05-25T20:34:30.142Z,101280.78
2023-05-25T20:36:57.964Z,101275.81
2023-05-25T20:39:25.702Z,101286.13
2023-05-25T20:41:53.395Z,101282.13
2023-05-25T20:44:21.508Z,101285.00
2023-05-25T20:46:50.790Z,101287.81
2023-05-25T20:49:18.496Z,101285.50
2023-05-25T20:51:49.987Z,101292.75
2023-05-25T20:54:17.850Z,101300.81
2023-05-25T20:56:47.456Z,101304.47
2023-05-25T20:59:15.398Z,101297.59
2023-05-25T21:01:44.177Z,101298.38
2023-05-25T21:04:13.464Z,101297.16
2023-05-25T21:06:41.328Z,101301.53
2023-05-25T21:09:09.031Z,101313.50
2023-05-25T21:11:37.022Z,101317.22
2023-05-25T21:14:05.211Z,101323.97
2023-05-25T21:16:33.243Z,101323.06
2023-05-25T21:19:01.000Z,101318.69
2023-05-25T21:21:33.836Z,101327.00
2023-05-25T21:24:02.317Z,101330.22
2023-05-25T21:26:30.363Z,101332.47
2023-05-25T21:28:58.481Z,101333.38
2023-05-25T21:31:26.581Z,101334.63
2023-05-25T21:33:54.281Z,101337.19
2023-05-25T21:36:22.005Z,101334.06
2023-05-25T21:38:51.433Z,101331.28
2023-05-25T21:41:19.313Z,101343.44
2023-05-25T21:43:47.145Z,101338.75
2023-05-25T21:46:14.852Z,101335.78
2023-05-25T21:48:42.638Z,101336.16
2023-05-25T21:51:10.432Z,101338.84
2023-05-25T21:53:38.237Z,101343.84
2023-05-25T21:56:07.313Z,101341.91
2023-05-25T21:58:35.035Z,101342.66
2023-05-25T22:01:02.804Z,101343.84
2023-05-25T22:03:30.594Z,101348.09
2023-05-25T22:05:58.461Z,101342.06
2023-05-25T22:08:26.139Z,101341.13
2023-05-25T22:10:53.856Z,101350.22
2023-05-25T22:13:23.039Z,101344.66
2023-05-25T22:15:51.089Z,101351.22
2023-05-25T22:18:18.843Z,101348.44
2023-05-25T22:20:46.692Z,101358.34
2023-05-25T22:23:14.523Z,101355.34
2023-05-25T22:25:42.490Z,101345.16
2023-05-25T22:28:10.391Z,101359.78
2023-05-25T22:30:39.599Z,101357.69
2023-05-25T22:33:07.409Z,101357.34
2023-05-25T22:35:35.258Z,101364.94
2023-05-25T22:38:03.088Z,101369.59
2023-05-25T22:40:30.772Z,101364.16
2023-05-25T22:42:58.555Z,101370.06
2023-05-25T22:45:28.968Z,101376.38
2023-05-25T22:47:58.102Z,101370.56
2023-05-25T22:50:25.936Z,101363.00
2023-05-25T22:52:53.931Z,101369.75
2023-05-25T22:55:21.688Z,101372.78
2023-05-25T22:57:51.287Z,101375.81
2023-05-25T23:00:19.333Z,101371.81
2023-05-25T23:02:47.177Z,101372.28
2023-05-25T23:05:16.382Z,101371.44
2023-05-25T23:07:44.890Z,101369.19
2023-05-25T23:10:12.743Z,101372.38
2023-05-25T23:12:40.574Z,101375.44
2023-05-25T23:15:09.610Z,101373.59
2023-05-25T23:17:37.409Z,101374.59
2023-05-25T23:20:07.821Z,101377.97
2023-05-25T23:22:37.244Z,101377.69
2023-05-25T23:25:05.484Z,101383.94
2023-05-25T23:27:33.249Z,101386.06
2023-05-25T23:30:02.059Z,101384.81
2023-05-25T23:32:29.852Z,101389.13
2023-05-25T23:34:57.598Z,101395.00
2023-05-25T23:37:25.274Z,101393.16
2023-05-25T23:39:54.330Z,101396.88
2023-05-25T23:42:22.218Z,101399.06
2023-05-25T23:44:49.964Z,101399.75
2023-05-25T23:47:17.733Z,101401.31
2023-05-25T23:49:45.515Z,101404.00
2023-05-25T23:52:13.277Z,101405.84
2023-05-25T23:54:40.975Z,101404.66
2023-05-25T23:57:10.160Z,101405.72
2023-05-25T23:59:37.847Z,101405.38
